sensor_id;sensor_type;location;lat;lon;timestamp;P1;durP1;ratioP1;P2;durP2;ratioP2
50124;SDS011;36023;48.670;6.184;2023-06-22T00:00:59;3.47;;;1.88;;
50124;SDS011;36023;48.670;6.184;2023-06-22T00:03:26;3.83;;;2.25;;
50124;SDS011;36023;48.670;6.184;2023-06-22T00:05:51;3.22;;;2.00;;
50124;SDS011;36023;48.670;6.184;2023-06-22T00:08:18;4.57;;;2.17;;
50124;SDS011;36023;48.670;6.184;2023-06-22T00:10:44;4.07;;;2.13;;
50124;SDS011;36023;48.670;6.184;2023-06-22T00:13:11;7.63;;;2.10;;
50124;SDS011;36023;48.670;6.184;2023-06-22T00:15:38;5.53;;;2.03;;
50124;SDS011;36023;48.670;6.184;2023-06-22T00:18:09;4.15;;;2.15;;
50124;SDS011;36023;48.670;6.184;2023-06-22T00:20:35;2.58;;;1.58;;
50124;SDS011;36023;48.670;6.184;2023-06-22T00:23:06;3.13;;;1.80;;
50124;SDS011;36023;48.670;6.184;2023-06-22T00:25:38;3.55;;;1.75;;
50124;SDS011;36023;48.670;6.184;2023-06-22T00:28:05;3.60;;;1.63;;
50124;SDS011;36023;48.670;6.184;2023-06-22T00:30:33;4.13;;;1.80;;
50124;SDS011;36023;48.670;6.184;2023-06-22T00:32:59;4.95;;;1.40;;
50124;SDS011;36023;48.670;6.184;2023-06-22T00:35:26;5.13;;;2.28;;
50124;SDS011;36023;48.670;6.184;2023-06-22T00:37:58;2.47;;;1.85;;
50124;SDS011;36023;48.670;6.184;2023-06-22T00:40:31;3.92;;;2.10;;
50124;SDS011;36023;48.670;6.184;2023-06-22T00:43:03;4.63;;;1.58;;
50124;SDS011;36023;48.670;6.184;2023-06-22T00:45:30;3.03;;;1.98;;
50124;SDS011;36023;48.670;6.184;2023-06-22T00:47:58;2.55;;;1.58;;
50124;SDS011;36023;48.670;6.184;2023-06-22T00:50:25;5.43;;;1.50;;
50124;SDS011;36023;48.670;6.184;2023-06-22T00:52:53;4.00;;;1.83;;
50124;SDS011;36023;48.670;6.184;2023-06-22T00:55:23;4.40;;;2.17;;
50124;SDS011;36023;48.670;6.184;2023-06-22T00:57:52;3.35;;;1.88;;
50124;SDS011;36023;48.670;6.184;2023-06-22T01:00:23;7.75;;;2.00;;
50124;SDS011;36023;48.670;6.184;2023-06-22T01:02:50;4.68;;;2.33;;
50124;SDS011;36023;48.670;6.184;2023-06-22T01:05:18;9.57;;;3.15;;
50124;SDS011;36023;48.670;6.184;2023-06-22T01:11:07;5.72;;;2.60;;
50124;SDS011;36023;48.670;6.184;2023-06-22T01:13:47;4.53;;;2.13;;
50124;SDS011;36023;48.670;6.184;2023-06-22T01:21:55;3.78;;;2.03;;
50124;SDS011;36023;48.670;6.184;2023-06-22T01:24:22;6.03;;;2.35;;
50124;SDS011;36023;48.670;6.184;2023-06-22T01:29:18;3.40;;;1.88;;
50124;SDS011;36023;48.670;6.184;2023-06-22T01:31:47;3.25;;;1.85;;
50124;SDS011;36023;48.670;6.184;2023-06-22T01:34:15;3.65;;;1.80;;
50124;SDS011;36023;48.670;6.184;2023-06-22T01:36:42;5.90;;;2.13;;
50124;SDS011;36023;48.670;6.184;2023-06-22T01:39:10;7.15;;;2.70;;
50124;SDS011;36023;48.670;6.184;2023-06-22T01:41:37;2.17;;;1.55;;
50124;SDS011;36023;48.670;6.184;2023-06-22T01:44:05;4.15;;;2.25;;
50124;SDS011;36023;48.670;6.184;2023-06-22T01:46:35;4.28;;;2.15;;
50124;SDS011;36023;48.670;6.184;2023-06-22T01:49:03;4.75;;;2.00;;
50124;SDS011;36023;48.670;6.184;2023-06-22T01:51:30;5.82;;;2.13;;
50124;SDS011;36023;48.670;6.184;2023-06-22T01:53:59;4.68;;;2.33;;
50124;SDS011;36023;48.670;6.184;2023-06-22T01:56:24;3.00;;;1.50;;
50124;SDS011;36023;48.670;6.184;2023-06-22T01:59:15;2.80;;;2.20;;
50124;SDS011;36023;48.670;6.184;2023-06-22T02:02:09;2.58;;;1.48;;
50124;SDS011;36023;48.670;6.184;2023-06-22T02:07:28;3.97;;;1.80;;
50124;SDS011;36023;48.670;6.184;2023-06-22T02:10:02;5.78;;;1.92;;
50124;SDS011;36023;48.670;6.184;2023-06-22T02:12:29;3.22;;;1.83;;
50124;SDS011;36023;48.670;6.184;2023-06-22T02:14:57;4.57;;;1.70;;
50124;SDS011;36023;48.670;6.184;2023-06-22T02:17:23;3.83;;;1.90;;
50124;SDS011;36023;48.670;6.184;2023-06-22T02:19:50;3.17;;;1.67;;
50124;SDS011;36023;48.670;6.184;2023-06-22T02:22:16;2.75;;;1.67;;
50124;SDS011;36023;48.670;6.184;2023-06-22T02:24:43;3.47;;;1.80;;
50124;SDS011;36023;48.670;6.184;2023-06-22T02:27:09;3.28;;;2.35;;
50124;SDS011;36023;48.670;6.184;2023-06-22T02:29:36;3.30;;;2.10;;
50124;SDS011;36023;48.670;6.184;2023-06-22T02:32:02;4.25;;;2.53;;
50124;SDS011;36023;48.670;6.184;2023-06-22T02:34:28;4.72;;;1.80;;
50124;SDS011;36023;48.670;6.184;2023-06-22T02:36:53;3.55;;;1.90;;
50124;SDS011;36023;48.670;6.184;2023-06-22T02:39:19;4.47;;;1.92;;
50124;SDS011;36023;48.670;6.184;2023-06-22T02:41:49;3.45;;;2.03;;
50124;SDS011;36023;48.670;6.184;2023-06-22T02:44:18;3.15;;;2.25;;
50124;SDS011;36023;48.670;6.184;2023-06-22T02:46:48;10.05;;;2.08;;
50124;SDS011;36023;48.670;6.184;2023-06-22T02:49:15;4.82;;;2.47;;
50124;SDS011;36023;48.670;6.184;2023-06-22T02:51:45;4.72;;;2.10;;
50124;SDS011;36023;48.670;6.184;2023-06-22T02:54:12;3.15;;;2.03;;
50124;SDS011;36023;48.670;6.184;2023-06-22T02:56:38;4.25;;;1.83;;
50124;SDS011;36023;48.670;6.184;2023-06-22T02:59:06;3.92;;;2.00;;
50124;SDS011;36023;48.670;6.184;2023-06-22T03:01:37;2.95;;;1.70;;
50124;SDS011;36023;48.670;6.184;2023-06-22T03:04:13;4.18;;;2.05;;
50124;SDS011;36023;48.670;6.184;2023-06-22T03:06:39;4.18;;;1.98;;
50124;SDS011;36023;48.670;6.184;2023-06-22T03:09:06;5.93;;;2.10;;
50124;SDS011;36023;48.670;6.184;2023-06-22T03:11:33;4.07;;;2.47;;
50124;SDS011;36023;48.670;6.184;2023-06-22T03:14:00;9.82;;;2.58;;
50124;SDS011;36023;48.670;6.184;2023-06-22T03:16:27;2.33;;;1.73;;
50124;SDS011;36023;48.670;6.184;2023-06-22T03:18:53;4.05;;;2.05;;
50124;SDS011;36023;48.670;6.184;2023-06-22T03:21:19;8.05;;;2.05;;
50124;SDS011;36023;48.670;6.184;2023-06-22T03:23:47;2.97;;;2.17;;
50124;SDS011;36023;48.670;6.184;2023-06-22T03:26:12;3.63;;;2.20;;
50124;SDS011;36023;48.670;6.184;2023-06-22T03:28:38;4.97;;;2.20;;
50124;SDS011;36023;48.670;6.184;2023-06-22T03:31:04;5.78;;;2.25;;
50124;SDS011;36023;48.670;6.184;2023-06-22T03:33:32;3.97;;;2.13;;
50124;SDS011;36023;48.670;6.184;2023-06-22T03:35:58;3.28;;;2.38;;
50124;SDS011;36023;48.670;6.184;2023-06-22T03:38:23;3.55;;;2.17;;
50124;SDS011;36023;48.670;6.184;2023-06-22T03:40:52;7.00;;;2.22;;
50124;SDS011;36023;48.670;6.184;2023-06-22T03:43:19;3.42;;;2.00;;
50124;SDS011;36023;48.670;6.184;2023-06-22T03:45:47;8.77;;;2.40;;
50124;SDS011;36023;48.670;6.184;2023-06-22T03:48:13;3.85;;;1.95;;
50124;SDS011;36023;48.670;6.184;2023-06-22T03:50:40;5.25;;;2.83;;
50124;SDS011;36023;48.670;6.184;2023-06-22T03:53:06;3.45;;;2.50;;
50124;SDS011;36023;48.670;6.184;2023-06-22T03:55:33;3.55;;;2.33;;
50124;SDS011;36023;48.670;6.184;2023-06-22T03:57:59;8.55;;;2.28;;
50124;SDS011;36023;48.670;6.184;2023-06-22T04:00:31;7.00;;;2.92;;
50124;SDS011;36023;48.670;6.184;2023-06-22T04:02:59;4.40;;;2.30;;
50124;SDS011;36023;48.670;6.184;2023-06-22T04:05:25;3.55;;;2.10;;
50124;SDS011;36023;48.670;6.184;2023-06-22T04:07:50;3.85;;;2.45;;
50124;SDS011;36023;48.670;6.184;2023-06-22T04:10:16;6.20;;;2.40;;
50124;SDS011;36023;48.670;6.184;2023-06-22T04:12:42;7.63;;;2.70;;
50124;SDS011;36023;48.670;6.184;2023-06-22T04:15:07;7.32;;;2.45;;
50124;SDS011;36023;48.670;6.184;2023-06-22T04:17:33;8.23;;;2.38;;
50124;SDS011;36023;48.670;6.184;2023-06-22T04:19:59;4.45;;;2.45;;
50124;SDS011;36023;48.670;6.184;2023-06-22T04:22:24;2.92;;;1.83;;
50124;SDS011;36023;48.670;6.184;2023-06-22T04:24:50;3.63;;;2.55;;
50124;SDS011;36023;48.670;6.184;2023-06-22T04:27:19;6.35;;;2.15;;
50124;SDS011;36023;48.670;6.184;2023-06-22T04:29:48;3.60;;;2.15;;
50124;SDS011;36023;48.670;6.184;2023-06-22T04:32:17;4.05;;;2.45;;
50124;SDS011;36023;48.670;6.184;2023-06-22T04:34:43;6.72;;;2.30;;
50124;SDS011;36023;48.670;6.184;2023-06-22T04:37:09;4.35;;;2.30;;
50124;SDS011;36023;48.670;6.184;2023-06-22T04:39:34;6.07;;;2.58;;
50124;SDS011;36023;48.670;6.184;2023-06-22T04:42:01;5.55;;;2.55;;
50124;SDS011;36023;48.670;6.184;2023-06-22T04:44:26;5.05;;;2.60;;
50124;SDS011;36023;48.670;6.184;2023-06-22T04:46:53;3.13;;;2.08;;
50124;SDS011;36023;48.670;6.184;2023-06-22T04:49:23;8.27;;;2.75;;
50124;SDS011;36023;48.670;6.184;2023-06-22T04:51:59;6.00;;;2.60;;
50124;SDS011;36023;48.670;6.184;2023-06-22T04:54:26;3.90;;;2.25;;
50124;SDS011;36023;48.670;6.184;2023-06-22T04:56:52;10.52;;;2.60;;
50124;SDS011;36023;48.670;6.184;2023-06-22T04:59:26;3.10;;;2.08;;
50124;SDS011;36023;48.670;6.184;2023-06-22T05:01:57;6.70;;;2.50;;
50124;SDS011;36023;48.670;6.184;2023-06-22T05:04:23;2.72;;;1.88;;
50124;SDS011;36023;48.670;6.184;2023-06-22T05:06:53;4.40;;;2.30;;
50124;SDS011;36023;48.670;6.184;2023-06-22T05:09:20;4.20;;;2.63;;
50124;SDS011;36023;48.670;6.184;2023-06-22T05:11:46;4.03;;;2.08;;
50124;SDS011;36023;48.670;6.184;2023-06-22T05:14:12;3.75;;;2.40;;
50124;SDS011;36023;48.670;6.184;2023-06-22T05:16:38;8.88;;;2.75;;
50124;SDS011;36023;48.670;6.184;2023-06-22T05:19:04;5.20;;;2.17;;
50124;SDS011;36023;48.670;6.184;2023-06-22T05:21:30;4.05;;;2.08;;
50124;SDS011;36023;48.670;6.184;2023-06-22T05:23:56;7.85;;;2.40;;
50124;SDS011;36023;48.670;6.184;2023-06-22T05:26:28;5.72;;;2.15;;
50124;SDS011;36023;48.670;6.184;2023-06-22T05:28:54;4.43;;;2.03;;
50124;SDS011;36023;48.670;6.184;2023-06-22T05:31:23;4.18;;;2.30;;
50124;SDS011;36023;48.670;6.184;2023-06-22T05:33:51;5.40;;;2.40;;
50124;SDS011;36023;48.670;6.184;2023-06-22T05:36:18;6.50;;;2.20;;
50124;SDS011;36023;48.670;6.184;2023-06-22T05:38:45;6.38;;;2.15;;
50124;SDS011;36023;48.670;6.184;2023-06-22T05:41:10;5.53;;;2.03;;
50124;SDS011;36023;48.670;6.184;2023-06-22T05:43:36;3.85;;;2.30;;
50124;SDS011;36023;48.670;6.184;2023-06-22T05:46:03;3.40;;;1.85;;
50124;SDS011;36023;48.670;6.184;2023-06-22T05:48:30;5.13;;;2.40;;
50124;SDS011;36023;48.670;6.184;2023-06-22T05:50:56;4.75;;;1.80;;
50124;SDS011;36023;48.670;6.184;2023-06-22T05:53:22;3.92;;;2.30;;
50124;SDS011;36023;48.670;6.184;2023-06-22T05:55:48;2.92;;;2.20;;
50124;SDS011;36023;48.670;6.184;2023-06-22T05:58:13;3.97;;;2.08;;
50124;SDS011;36023;48.670;6.184;2023-06-22T06:00:40;4.10;;;1.80;;
50124;SDS011;36023;48.670;6.184;2023-06-22T06:03:09;6.32;;;2.45;;
50124;SDS011;36023;48.670;6.184;2023-06-22T06:05:36;3.90;;;1.67;;
50124;SDS011;36023;48.670;6.184;2023-06-22T06:08:03;3.75;;;1.80;;
50124;SDS011;36023;48.670;6.184;2023-06-22T06:10:31;2.97;;;1.65;;
50124;SDS011;36023;48.670;6.184;2023-06-22T06:12:57;5.15;;;1.05;;
50124;SDS011;36023;48.670;6.184;2023-06-22T06:15:23;2.65;;;1.50;;
50124;SDS011;36023;48.670;6.184;2023-06-22T06:17:52;2.90;;;1.52;;
50124;SDS011;36023;48.670;6.184;2023-06-22T06:20:19;3.25;;;1.40;;
50124;SDS011;36023;48.670;6.184;2023-06-22T06:22:47;2.22;;;1.30;;
50124;SDS011;36023;48.670;6.184;2023-06-22T06:25:13;3.28;;;1.45;;
50124;SDS011;36023;48.670;6.184;2023-06-22T06:27:44;2.22;;;1.45;;
50124;SDS011;36023;48.670;6.184;2023-06-22T06:30:11;2.75;;;1.35;;
50124;SDS011;36023;48.670;6.184;2023-06-22T06:32:38;4.10;;;1.33;;
50124;SDS011;36023;48.670;6.184;2023-06-22T06:35:08;4.75;;;1.10;;
50124;SDS011;36023;48.670;6.184;2023-06-22T06:37:36;2.13;;;1.33;;
50124;SDS011;36023;48.670;6.184;2023-06-22T06:40:08;2.08;;;1.05;;
50124;SDS011;36023;48.670;6.184;2023-06-22T06:42:39;2.60;;;1.50;;
50124;SDS011;36023;48.670;6.184;2023-06-22T06:47:38;3.08;;;1.42;;
50124;SDS011;36023;48.670;6.184;2023-06-22T06:50:05;2.17;;;1.20;;
50124;SDS011;36023;48.670;6.184;2023-06-22T06:52:31;2.80;;;1.60;;
50124;SDS011;36023;48.670;6.184;2023-06-22T06:54:57;4.05;;;1.60;;
50124;SDS011;36023;48.670;6.184;2023-06-22T06:57:24;4.32;;;1.30;;
50124;SDS011;36023;48.670;6.184;2023-06-22T06:59:57;2.35;;;1.35;;
50124;SDS011;36023;48.670;6.184;2023-06-22T07:02:24;4.18;;;1.90;;
50124;SDS011;36023;48.670;6.184;2023-06-22T07:04:53;1.85;;;1.38;;
50124;SDS011;36023;48.670;6.184;2023-06-22T07:07:20;2.42;;;1.08;;
50124;SDS011;36023;48.670;6.184;2023-06-22T07:09:46;2.47;;;1.20;;
50124;SDS011;36023;48.670;6.184;2023-06-22T07:12:12;6.03;;;1.08;;
50124;SDS011;36023;48.670;6.184;2023-06-22T07:14:37;4.65;;;1.55;;
50124;SDS011;36023;48.670;6.184;2023-06-22T07:17:03;2.30;;;1.35;;
50124;SDS011;36023;48.670;6.184;2023-06-22T07:19:29;3.05;;;1.13;;
50124;SDS011;36023;48.670;6.184;2023-06-22T07:21:55;3.30;;;1.00;;
50124;SDS011;36023;48.670;6.184;2023-06-22T07:24:21;3.88;;;1.20;;
50124;SDS011;36023;48.670;6.184;2023-06-22T07:26:47;2.33;;;1.05;;
50124;SDS011;36023;48.670;6.184;2023-06-22T07:29:18;2.30;;;1.05;;
50124;SDS011;36023;48.670;6.184;2023-06-22T07:31:46;1.90;;;1.10;;
50124;SDS011;36023;48.670;6.184;2023-06-22T07:34:12;3.35;;;1.30;;
50124;SDS011;36023;48.670;6.184;2023-06-22T07:36:38;4.75;;;1.17;;
50124;SDS011;36023;48.670;6.184;2023-06-22T07:39:04;1.88;;;1.00;;
50124;SDS011;36023;48.670;6.184;2023-06-22T07:41:31;2.20;;;1.17;;
50124;SDS011;36023;48.670;6.184;2023-06-22T07:43:57;2.30;;;1.10;;
50124;SDS011;36023;48.670;6.184;2023-06-22T07:46:23;1.77;;;1.00;;
50124;SDS011;36023;48.670;6.184;2023-06-22T07:48:50;1.98;;;1.20;;
50124;SDS011;36023;48.670;6.184;2023-06-22T07:51:15;2.97;;;1.25;;
50124;SDS011;36023;48.670;6.184;2023-06-22T07:53:42;3.35;;;1.00;;
50124;SDS011;36023;48.670;6.184;2023-06-22T07:56:11;3.30;;;1.33;;
50124;SDS011;36023;48.670;6.184;2023-06-22T07:58:38;1.75;;;1.15;;
50124;SDS011;36023;48.670;6.184;2023-06-22T08:01:04;2.25;;;1.42;;
50124;SDS011;36023;48.670;6.184;2023-06-22T08:03:32;4.13;;;1.77;;
50124;SDS011;36023;48.670;6.184;2023-06-22T08:05:58;2.58;;;1.58;;
50124;SDS011;36023;48.670;6.184;2023-06-22T08:08:23;2.25;;;1.67;;
50124;SDS011;36023;48.670;6.184;2023-06-22T08:10:49;4.60;;;1.58;;
50124;SDS011;36023;48.670;6.184;2023-06-22T08:13:15;3.90;;;1.35;;
50124;SDS011;36023;48.670;6.184;2023-06-22T08:15:40;3.10;;;1.30;;
50124;SDS011;36023;48.670;6.184;2023-06-22T08:18:06;4.93;;;1.67;;
50124;SDS011;36023;48.670;6.184;2023-06-22T08:20:32;5.47;;;1.30;;
50124;SDS011;36023;48.670;6.184;2023-06-22T08:22:57;1.88;;;1.13;;
50124;SDS011;36023;48.670;6.184;2023-06-22T08:25:25;3.78;;;1.65;;
50124;SDS011;36023;48.670;6.184;2023-06-22T08:27:51;1.48;;;0.82;;
50124;SDS011;36023;48.670;6.184;2023-06-22T08:30:17;2.65;;;1.52;;
50124;SDS011;36023;48.670;6.184;2023-06-22T08:32:44;2.22;;;1.40;;
50124;SDS011;36023;48.670;6.184;2023-06-22T08:35:10;2.40;;;1.45;;
50124;SDS011;36023;48.670;6.184;2023-06-22T08:37:36;2.95;;;1.35;;
50124;SDS011;36023;48.670;6.184;2023-06-22T08:40:08;5.35;;;1.50;;
50124;SDS011;36023;48.670;6.184;2023-06-22T08:42:37;2.67;;;1.90;;
50124;SDS011;36023;48.670;6.184;2023-06-22T08:45:05;1.77;;;1.20;;
50124;SDS011;36023;48.670;6.184;2023-06-22T08:47:32;5.07;;;1.30;;
50124;SDS011;36023;48.670;6.184;2023-06-22T08:49:57;3.78;;;1.20;;
50124;SDS011;36023;48.670;6.184;2023-06-22T08:52:24;3.58;;;1.30;;
50124;SDS011;36023;48.670;6.184;2023-06-22T08:54:50;4.35;;;1.75;;
50124;SDS011;36023;48.670;6.184;2023-06-22T08:57:16;2.25;;;1.23;;
50124;SDS011;36023;48.670;6.184;2023-06-22T08:59:42;1.83;;;1.00;;
50124;SDS011;36023;48.670;6.184;2023-06-22T09:02:10;2.25;;;1.35;;
50124;SDS011;36023;48.670;6.184;2023-06-22T09:04:35;3.47;;;1.27;;
50124;SDS011;36023;48.670;6.184;2023-06-22T09:07:01;2.13;;;1.00;;
50124;SDS011;36023;48.670;6.184;2023-06-22T09:09:27;2.40;;;1.15;;
50124;SDS011;36023;48.670;6.184;2023-06-22T09:11:53;3.00;;;1.13;;
50124;SDS011;36023;48.670;6.184;2023-06-22T09:14:18;2.25;;;1.45;;
50124;SDS011;36023;48.670;6.184;2023-06-22T09:16:44;2.13;;;1.23;;
50124;SDS011;36023;48.670;6.184;2023-06-22T09:19:10;1.50;;;0.98;;
50124;SDS011;36023;48.670;6.184;2023-06-22T09:21:36;4.28;;;1.00;;
50124;SDS011;36023;48.670;6.184;2023-06-22T09:24:02;3.88;;;1.27;;
50124;SDS011;36023;48.670;6.184;2023-06-22T09:26:29;1.45;;;1.00;;
50124;SDS011;36023;48.670;6.184;2023-06-22T09:28:56;1.45;;;0.93;;
50124;SDS011;36023;48.670;6.184;2023-06-22T09:31:21;3.17;;;1.00;;
50124;SDS011;36023;48.670;6.184;2023-06-22T09:33:51;4.18;;;1.17;;
50124;SDS011;36023;48.670;6.184;2023-06-22T09:36:20;1.38;;;0.93;;
50124;SDS011;36023;48.670;6.184;2023-06-22T09:38:47;3.17;;;1.08;;
50124;SDS011;36023;48.670;6.184;2023-06-22T09:41:15;2.78;;;1.42;;
50124;SDS011;36023;48.670;6.184;2023-06-22T09:43:41;1.92;;;1.13;;
50124;SDS011;36023;48.670;6.184;2023-06-22T09:46:10;7.18;;;1.20;;
50124;SDS011;36023;48.670;6.184;2023-06-22T09:48:36;5.10;;;1.65;;
50124;SDS011;36023;48.670;6.184;2023-06-22T09:51:03;2.40;;;1.10;;
50124;SDS011;36023;48.670;6.184;2023-06-22T09:53:29;1.50;;;0.95;;
50124;SDS011;36023;48.670;6.184;2023-06-22T09:55:55;2.40;;;1.00;;
50124;SDS011;36023;48.670;6.184;2023-06-22T10:02:28;2.88;;;1.13;;
50124;SDS011;36023;48.670;6.184;2023-06-22T10:06:05;2.88;;;1.42;;
50124;SDS011;36023;48.670;6.184;2023-06-22T10:09:50;1.65;;;0.90;;
50124;SDS011;36023;48.670;6.184;2023-06-22T10:12:16;2.35;;;0.85;;
50124;SDS011;36023;48.670;6.184;2023-06-22T10:14:42;6.32;;;1.13;;
50124;SDS011;36023;48.670;6.184;2023-06-22T10:17:07;2.72;;;1.50;;
50124;SDS011;36023;48.670;6.184;2023-06-22T10:19:33;1.33;;;0.80;;
50124;SDS011;36023;48.670;6.184;2023-06-22T10:22:02;1.73;;;0.85;;
50124;SDS011;36023;48.670;6.184;2023-06-22T10:24:27;4.63;;;1.23;;
50124;SDS011;36023;48.670;6.184;2023-06-22T10:26:53;5.53;;;1.15;;
50124;SDS011;36023;48.670;6.184;2023-06-22T11:34:34;1.58;;;0.90;;
50124;SDS011;36023;48.670;6.184;2023-06-22T11:37:01;1.35;;;0.80;;
50124;SDS011;36023;48.670;6.184;2023-06-22T11:39:26;1.58;;;0.75;;
50124;SDS011;36023;48.670;6.184;2023-06-22T11:41:52;6.25;;;1.15;;
50124;SDS011;36023;48.670;6.184;2023-06-22T11:54:40;2.58;;;0.98;;
50124;SDS011;36023;48.670;6.184;2023-06-22T11:57:06;2.53;;;1.00;;
50124;SDS011;36023;48.670;6.184;2023-06-22T11:59:31;3.92;;;0.80;;
50124;SDS011;36023;48.670;6.184;2023-06-22T12:01:57;6.63;;;1.02;;
50124;SDS011;36023;48.670;6.184;2023-06-22T12:04:23;2.67;;;1.05;;
50124;SDS011;36023;48.670;6.184;2023-06-22T12:06:49;2.40;;;1.13;;
50124;SDS011;36023;48.670;6.184;2023-06-22T12:09:14;1.35;;;0.73;;
50124;SDS011;36023;48.670;6.184;2023-06-22T12:11:41;3.67;;;1.02;;
50124;SDS011;36023;48.670;6.184;2023-06-22T12:14:09;3.67;;;0.70;;
50124;SDS011;36023;48.670;6.184;2023-06-22T12:16:35;4.22;;;1.25;;
50124;SDS011;36023;48.670;6.184;2023-06-22T12:19:01;1.52;;;0.85;;
50124;SDS011;36023;48.670;6.184;2023-06-22T12:21:27;1.73;;;1.00;;
50124;SDS011;36023;48.670;6.184;2023-06-22T12:23:55;1.80;;;0.80;;
50124;SDS011;36023;48.670;6.184;2023-06-22T12:26:21;1.30;;;0.80;;
50124;SDS011;36023;48.670;6.184;2023-06-22T12:28:47;1.73;;;1.20;;
50124;SDS011;36023;48.670;6.184;2023-06-22T12:31:15;2.33;;;0.88;;
50124;SDS011;36023;48.670;6.184;2023-06-22T12:33:42;2.60;;;0.80;;
50124;SDS011;36023;48.670;6.184;2023-06-22T12:36:08;1.10;;;0.65;;
50124;SDS011;36023;48.670;6.184;2023-06-22T12:38:33;1.85;;;0.90;;
50124;SDS011;36023;48.670;6.184;2023-06-22T12:40:59;1.58;;;0.82;;
50124;SDS011;36023;48.670;6.184;2023-06-22T12:43:25;3.17;;;0.80;;
50124;SDS011;36023;48.670;6.184;2023-06-22T12:45:51;2.40;;;1.00;;
50124;SDS011;36023;48.670;6.184;2023-06-22T12:48:16;3.50;;;0.80;;
50124;SDS011;36023;48.670;6.184;2023-06-22T12:50:42;2.78;;;1.08;;
50124;SDS011;36023;48.670;6.184;2023-06-22T12:53:10;1.60;;;0.85;;
50124;SDS011;36023;48.670;6.184;2023-06-22T12:55:35;1.45;;;0.63;;
50124;SDS011;36023;48.670;6.184;2023-06-22T12:58:01;2.53;;;0.80;;
50124;SDS011;36023;48.670;6.184;2023-06-22T13:00:26;6.25;;;0.82;;
50124;SDS011;36023;48.670;6.184;2023-06-22T13:02:52;1.40;;;0.73;;
50124;SDS011;36023;48.670;6.184;2023-06-22T13:05:18;1.80;;;0.90;;
50124;SDS011;36023;48.670;6.184;2023-06-22T13:07:44;4.07;;;0.98;;
50124;SDS011;36023;48.670;6.184;2023-06-22T13:10:10;1.25;;;0.77;;
50124;SDS011;36023;48.670;6.184;2023-06-22T13:12:36;2.33;;;1.08;;
50124;SDS011;36023;48.670;6.184;2023-06-22T13:15:03;1.15;;;0.60;;
50124;SDS011;36023;48.670;6.184;2023-06-22T13:17:30;1.95;;;0.70;;
50124;SDS011;36023;48.670;6.184;2023-06-22T13:19:55;1.02;;;0.80;;
50124;SDS011;36023;48.670;6.184;2023-06-22T13:24:53;5.40;;;1.08;;
50124;SDS011;36023;48.670;6.184;2023-06-22T13:27:18;1.23;;;0.60;;
50124;SDS011;36023;48.670;6.184;2023-06-22T13:29:44;1.70;;;1.00;;
50124;SDS011;36023;48.670;6.184;2023-06-22T13:32:11;1.70;;;0.90;;
50124;SDS011;36023;48.670;6.184;2023-06-22T13:34:38;0.93;;;0.70;;
50124;SDS011;36023;48.670;6.184;2023-06-22T13:37:04;3.40;;;0.80;;
50124;SDS011;36023;48.670;6.184;2023-06-22T13:39:29;1.33;;;0.55;;
50124;SDS011;36023;48.670;6.184;2023-06-22T13:41:56;2.65;;;0.77;;
50124;SDS011;36023;48.670;6.184;2023-06-22T13:44:22;3.10;;;0.95;;
50124;SDS011;36023;48.670;6.184;2023-06-22T13:46:48;1.38;;;0.40;;
50124;SDS011;36023;48.670;6.184;2023-06-22T13:49:13;1.75;;;0.70;;
50124;SDS011;36023;48.670;6.184;2023-06-22T13:51:40;1.65;;;0.85;;
50124;SDS011;36023;48.670;6.184;2023-06-22T13:54:05;1.20;;;0.60;;
50124;SDS011;36023;48.670;6.184;2023-06-22T13:56:31;0.77;;;0.47;;
50124;SDS011;36023;48.670;6.184;2023-06-22T13:58:57;1.30;;;0.70;;
50124;SDS011;36023;48.670;6.184;2023-06-22T14:01:23;1.27;;;0.70;;
50124;SDS011;36023;48.670;6.184;2023-06-22T14:03:49;2.35;;;0.65;;
50124;SDS011;36023;48.670;6.184;2023-06-22T14:06:14;0.95;;;0.57;;
50124;SDS011;36023;48.670;6.184;2023-06-22T14:08:40;1.73;;;0.55;;
50124;SDS011;36023;48.670;6.184;2023-06-22T14:11:06;0.75;;;0.60;;
50124;SDS011;36023;48.670;6.184;2023-06-22T14:13:33;1.02;;;0.40;;
50124;SDS011;36023;48.670;6.184;2023-06-22T14:16:00;2.65;;;0.40;;
50124;SDS011;36023;48.670;6.184;2023-06-22T14:18:26;1.88;;;0.88;;
50124;SDS011;36023;48.670;6.184;2023-06-22T14:20:53;0.70;;;0.38;;
50124;SDS011;36023;48.670;6.184;2023-06-22T14:49:34;4.70;;;0.85;;
50124;SDS011;36023;48.670;6.184;2023-06-22T14:56:22;2.40;;;0.60;;
50124;SDS011;36023;48.670;6.184;2023-06-22T16:24:29;0.55;;;0.25;;
50124;SDS011;36023;48.670;6.184;2023-06-22T16:26:55;1.30;;;0.40;;
50124;SDS011;36023;48.670;6.184;2023-06-22T16:29:21;0.68;;;0.30;;
50124;SDS011;36023;48.670;6.184;2023-06-22T16:34:16;0.40;;;0.30;;
50124;SDS011;36023;48.670;6.184;2023-06-22T16:40:50;0.30;;;0.20;;
